Time;durP1;ratioP1;P1;durP2;ratioP2;P2;SDS_P1;SDS_P2;PMS_P1;PMS_P2;Temp;Humidity;BMP_temperature;BMP_pressure;BME280_temperature;BME280_humidity;BME280_pressure;Samples;Min_cycle;Max_cycle;Signal;HPM_P1;HPM_P2
2022/12/24 00:02:17;;;;;;;3.43;1.20;;;;;;;19.30;55.61;99864.88;5064570;28;20190;-68
2022/12/24 00:04:43;;;;;;;5.27;1.13;;;;;;;19.31;55.53;99864.50;5053824;28;20264;-68
2022/12/24 00:07:08;;;;;;;2.30;1.30;;;;;;;19.27;55.48;99863.66;5071258;28;20206;-68
2022/12/24 00:09:33;;;;;;;3.20;1.20;;;;;;;19.30;55.71;99862.88;5062600;28;20230;-68
2022/12/24 00:11:59;;;;;;;3.30;1.40;;;;;;;19.31;55.43;99858.78;5034473;28;20631;-68
2022/12/24 00:14:24;;;;;;;3.20;1.00;;;;;;;19.31;55.82;99869.41;5034726;28;20183;-68
2022/12/24 00:16:50;;;;;;;2.93;1.13;;;;;;;19.28;55.63;99862.44;5035875;28;20188;-68
2022/12/24 00:19:15;;;;;;;2.93;1.27;;;;;;;19.29;55.60;99869.81;5051916;28;20175;-68
2022/12/24 00:21:41;;;;;;;3.70;1.47;;;;;;;19.32;55.59;99871.06;5033667;28;20172;-68
2022/12/24 00:24:06;;;;;;;4.00;1.20;;;;;;;19.26;55.62;99864.88;5041170;28;20190;-68
2022/12/24 00:26:32;;;;;;;2.73;1.13;;;;;;;19.28;55.61;99876.75;5071488;28;20199;-68
2022/12/24 00:28:58;;;;;;;3.07;1.23;;;;;;;19.30;55.55;99877.19;5053855;28;20174;-68
2022/12/24 00:31:23;;;;;;;4.07;1.30;;;;;;;19.27;55.46;99875.09;5071812;28;20421;-68
2022/12/24 00:33:49;;;;;;;2.70;1.07;;;;;;;19.27;55.67;99871.44;5050375;28;20186;-68
2022/12/24 00:36:14;;;;;;;3.57;1.30;;;;;;;19.28;55.88;99871.03;5053718;28;20163;-68
2022/12/24 00:38:40;;;;;;;4.07;1.10;;;;;;;19.29;55.69;99881.25;5051426;28;20180;-68
2022/12/24 00:41:22;;;;;;;3.50;1.23;;;;;;;19.28;55.67;99885.34;5051616;28;20179;-68
2022/12/24 00:43:50;;;;;;;2.97;1.20;;;;;;;19.31;55.48;99887.41;5036217;28;20160;-68
2022/12/24 00:46:16;;;;;;;2.60;1.13;;;;;;;19.29;55.50;99895.56;5033991;28;20453;-68
2022/12/24 00:48:41;;;;;;;2.80;1.17;;;;;;;19.27;55.46;99895.13;5055209;28;20453;-68
2022/12/24 00:51:06;;;;;;;2.33;1.20;;;;;;;19.26;55.58;99904.13;5053376;28;20606;-68
2022/12/24 00:53:32;;;;;;;3.23;1.07;;;;;;;19.24;55.50;99904.53;5071398;28;20164;-68
2022/12/24 00:55:57;;;;;;;3.13;1.30;;;;;;;19.29;55.42;99904.16;5067571;28;20234;-68
2022/12/24 00:58:23;;;;;;;3.73;1.20;;;;;;;19.25;55.51;99902.47;5035895;28;20192;-68
2022/12/24 01:00:48;;;;;;;2.57;1.00;;;;;;;19.26;55.48;99910.66;5033444;28;20179;-68
2022/12/24 01:03:13;;;;;;;3.37;0.87;;;;;;;19.25;55.61;99911.06;5057781;28;20179;-68
2022/12/24 01:05:39;;;;;;;2.73;0.87;;;;;;;19.26;55.94;99927.84;5053006;28;20210;-68
2022/12/24 01:08:04;;;;;;;2.80;1.23;;;;;;;19.25;55.71;99931.91;5057811;28;20541;-68
2022/12/24 01:10:30;;;;;;;4.70;1.47;;;;;;;19.25;55.58;99937.66;5051316;28;20180;-68
2022/12/24 01:12:55;;;;;;;2.60;0.90;;;;;;;19.24;55.93;99952.34;5051091;28;20160;-68
2022/12/24 01:15:21;;;;;;;2.67;1.00;;;;;;;19.24;55.38;99958.91;5051303;28;20156;-68
2022/12/24 01:17:46;;;;;;;3.03;1.50;;;;;;;19.28;55.81;99964.66;5055006;28;20191;-68
2022/12/24 01:20:14;;;;;;;3.23;1.00;;;;;;;19.26;55.74;99958.50;5071920;28;20505;-68
2022/12/24 01:22:39;;;;;;;2.93;1.20;;;;;;;19.26;55.76;99961.38;5043535;28;20265;-68
2022/12/24 01:25:05;;;;;;;4.90;1.20;;;;;;;19.24;55.66;99943.75;5077659;28;20419;-68
2022/12/24 01:27:31;;;;;;;2.37;1.10;;;;;;;19.25;55.47;99954.81;5071873;28;20203;-68
2022/12/24 01:29:57;;;;;;;2.37;1.23;;;;;;;19.23;55.33;99968.72;5074866;28;20235;-68
2022/12/24 01:32:22;;;;;;;2.40;1.20;;;;;;;19.24;55.59;99986.69;5057009;28;20822;-68
2022/12/24 01:34:48;;;;;;;2.20;1.03;;;;;;;19.25;55.42;99983.44;5074591;28;20175;-68
2022/12/24 01:37:13;;;;;;;2.80;1.17;;;;;;;19.25;55.33;99994.06;5060364;28;20191;-68
2022/12/24 01:39:38;;;;;;;2.87;1.20;;;;;;;19.26;55.63;99981.41;5037474;28;20168;-68
2022/12/24 01:45:32;;;;;;;2.30;1.00;;;;;;;19.23;55.58;100003.06;5056629;28;20728;-68
2022/12/24 01:47:58;;;;;;;2.20;1.10;;;;;;;19.24;55.38;100003.84;5036773;28;20537;-68
2022/12/24 01:50:23;;;;;;;1.83;1.00;;;;;;;19.26;55.81;100007.16;5020239;28;20407;-68
2022/12/24 01:52:49;;;;;;;3.30;1.00;;;;;;;19.25;55.58;100009.19;5036634;28;20187;-68
2022/12/24 01:55:15;;;;;;;2.70;0.90;;;;;;;19.19;55.58;100013.59;5056865;28;20231;-68
2022/12/24 01:57:44;;;;;;;3.83;1.30;;;;;;;19.21;55.77;100004.63;5036576;28;20267;-68
2022/12/24 02:00:37;;;;;;;4.13;1.53;;;;;;;19.21;55.47;100001.78;5039040;28;20437;-68
2022/12/24 02:03:02;;;;;;;5.40;0.87;;;;;;;19.20;55.59;100008.69;5058681;28;20468;-66
2022/12/24 02:05:35;;;;;;;2.20;1.00;;;;;;;19.20;55.45;100005.81;5054114;28;20944;-66
2022/12/24 02:08:01;;;;;;;1.90;0.83;;;;;;;19.20;55.63;100006.66;5036706;28;20245;-66
2022/12/24 02:10:26;;;;;;;4.43;1.13;;;;;;;19.19;55.50;100010.75;5053775;28;20454;-66
2022/12/24 02:12:52;;;;;;;3.67;1.20;;;;;;;19.20;55.48;100009.53;5056403;28;20286;-66
2022/12/24 02:15:18;;;;;;;3.23;1.17;;;;;;;19.21;55.35;100016.06;5019462;28;20247;-66
2022/12/24 02:18:00;;;;;;;3.17;1.27;;;;;;;19.20;55.50;100008.69;5059396;28;20194;-66
2022/12/24 02:20:50;;;;;;;2.93;1.13;;;;;;;19.19;55.37;100010.75;5058692;28;20210;-65
2022/12/24 02:23:47;;;;;;;3.20;0.93;;;;;;;19.19;55.52;100007.03;5053505;28;20448;-66
2022/12/24 02:26:31;;;;;;;3.43;1.20;;;;;;;19.20;55.65;100017.25;5008264;28;20493;-66
2022/12/24 02:28:59;;;;;;;3.67;1.27;;;;;;;19.18;55.49;100017.69;5059870;28;20429;-66
2022/12/24 02:31:39;;;;;;;2.97;1.10;;;;;;;19.18;55.63;100023.41;5072093;28;20421;-66
2022/12/24 02:34:35;;;;;;;3.30;0.93;;;;;;;19.18;55.37;100011.97;5071188;28;20467;-66
2022/12/24 02:37:11;;;;;;;3.43;1.40;;;;;;;19.18;55.38;100005.41;5038830;28;20450;-66
2022/12/24 02:39:54;;;;;;;3.27;1.10;;;;;;;19.14;55.39;99985.34;5017579;28;20543;-66
2022/12/24 02:42:22;;;;;;;2.13;1.07;;;;;;;19.16;55.52;99994.34;5038795;28;20929;-66
2022/12/24 02:44:50;;;;;;;1.80;0.90;;;;;;;19.15;56.05;100014.75;5019027;28;20410;-66
2022/12/24 02:47:16;;;;;;;3.50;1.00;;;;;;;19.17;55.41;100000.91;5019190;28;20462;-66
2022/12/24 02:49:45;;;;;;;2.20;1.00;;;;;;;19.18;55.37;100009.09;5018686;28;20776;-66
2022/12/24 02:52:33;;;;;;;3.80;1.23;;;;;;;19.19;55.44;100002.16;5031892;28;20191;-66
2022/12/24 02:55:16;;;;;;;2.07;0.90;;;;;;;19.14;55.72;100001.66;5037510;28;20468;-66
2022/12/24 02:58:03;;;;;;;2.20;0.97;;;;;;;19.14;55.42;100013.94;5035305;28;20418;-66
2022/12/24 03:00:55;;;;;;;2.70;1.20;;;;;;;19.16;55.30;100011.50;5053551;28;20483;-66
2022/12/24 03:03:37;;;;;;;2.70;0.90;;;;;;;19.14;55.97;100016.81;5051595;28;20492;-66
2022/12/24 03:06:14;;;;;;;2.50;1.07;;;;;;;19.16;55.27;100025.00;5055221;28;20460;-66
2022/12/24 03:08:54;;;;;;;3.20;1.57;;;;;;;19.16;55.44;100028.69;5053870;28;20467;-66
2022/12/24 03:11:19;;;;;;;4.57;1.00;;;;;;;19.18;55.48;100032.00;5035880;28;20426;-66
2022/12/24 03:13:45;;;;;;;2.30;0.90;;;;;;;19.14;55.53;100030.28;5054708;28;20413;-66
2022/12/24 03:16:13;;;;;;;2.73;0.93;;;;;;;19.15;55.55;100029.06;5040536;28;20202;-66
2022/12/24 03:18:40;;;;;;;4.03;1.07;;;;;;;19.16;55.44;100028.69;5035182;28;20179;-66
2022/12/24 03:21:11;;;;;;;2.43;1.00;;;;;;;19.14;55.39;100022.53;5036650;28;20425;-66
2022/12/24 03:23:36;;;;;;;2.07;0.97;;;;;;;19.15;55.36;100035.63;5038403;28;20405;-66
2022/12/24 03:26:05;;;;;;;2.27;0.93;;;;;;;19.16;55.44;100036.47;5050912;28;20460;-67
2022/12/24 03:28:31;;;;;;;2.83;1.00;;;;;;;19.14;55.38;100045.44;5038536;28;20694;-67
2022/12/24 03:30:59;;;;;;;2.30;1.13;;;;;;;19.14;55.37;100050.31;5056033;28;20522;-67
2022/12/24 03:33:24;;;;;;;2.97;0.97;;;;;;;19.15;55.44;100055.66;5042939;28;20233;-67
2022/12/24 03:35:50;;;;;;;3.27;1.33;;;;;;;19.13;55.45;100063.81;5054792;28;20445;-67
2022/12/24 03:38:15;;;;;;;3.07;1.00;;;;;;;19.13;55.46;100063.81;5034417;28;20175;-67
2022/12/24 03:40:40;;;;;;;3.33;1.10;;;;;;;19.09;55.73;100062.94;5072088;28;20163;-67
2022/12/24 03:43:06;;;;;;;3.47;1.30;;;;;;;19.13;55.45;100068.72;5058393;28;20905;-67
2022/12/24 03:45:31;;;;;;;2.07;0.90;;;;;;;19.11;55.54;100077.69;5057544;28;20186;-67
2022/12/24 03:47:57;;;;;;;2.33;0.93;;;;;;;19.13;55.55;100075.28;5067681;28;20171;-67
2022/12/24 03:50:22;;;;;;;2.53;1.00;;;;;;;19.14;55.74;100073.22;5051809;28;20517;-67
2022/12/24 03:52:48;;;;;;;2.33;1.00;;;;;;;19.16;55.62;100076.53;5051964;28;20163;-67
2022/12/24 03:55:13;;;;;;;5.33;1.27;;;;;;;19.12;55.64;100072.78;5054114;28;20596;-67
2022/12/24 03:57:39;;;;;;;3.50;1.53;;;;;;;19.15;55.23;100078.56;5034000;28;20163;-67
2022/12/24 04:00:05;;;;;;;2.70;1.00;;;;;;;19.13;55.40;100089.56;5054323;28;20245;-67
2022/12/24 04:02:30;;;;;;;2.30;1.00;;;;;;;19.12;55.48;100082.19;5034583;28;20188;-67
2022/12/24 04:04:56;;;;;;;2.57;0.90;;;;;;;19.12;55.63;100079.31;5071385;28;20438;-65
2022/12/24 04:07:21;;;;;;;1.90;0.80;;;;;;;19.14;55.43;100090.38;5037507;28;20709;-65
2022/12/24 04:09:47;;;;;;;2.20;0.97;;;;;;;19.14;55.27;100088.34;5017181;28;20202;-65
2022/12/24 04:12:12;;;;;;;2.33;1.00;;;;;;;19.12;55.28;100090.75;5053902;28;20190;-65
2022/12/24 04:14:38;;;;;;;3.10;1.00;;;;;;;19.14;55.50;100099.81;5017436;28;20172;-66
2022/12/24 04:17:03;;;;;;;2.53;1.10;;;;;;;19.15;55.54;100086.31;5051474;28;20164;-65
2022/12/24 04:19:28;;;;;;;3.17;1.27;;;;;;;19.13;55.55;100083.84;5036338;28;20190;-65
2022/12/24 04:21:54;;;;;;;2.53;0.90;;;;;;;19.13;55.34;100089.56;5051452;28;20160;-66
2022/12/24 04:24:19;;;;;;;2.30;1.00;;;;;;;19.14;55.23;100090.38;5061715;28;20637;-66
2022/12/24 04:26:45;;;;;;;2.00;1.03;;;;;;;19.09;55.32;100099.31;5055695;28;20198;-66
2022/12/24 04:29:10;;;;;;;2.17;1.07;;;;;;;19.13;55.28;100106.75;5052442;28;20163;-66
2022/12/24 04:31:36;;;;;;;2.73;0.90;;;;;;;19.16;55.49;100111.66;5038448;28;20176;-66
2022/12/24 04:34:01;;;;;;;3.40;0.93;;;;;;;19.14;55.45;100102.66;5071403;28;20883;-65
2022/12/24 04:36:27;;;;;;;2.57;0.90;;;;;;;19.14;55.52;100105.53;5044519;28;20172;-65
2022/12/24 04:38:52;;;;;;;2.67;1.00;;;;;;;19.14;55.14;100096.94;5051314;28;20267;-67
2022/12/24 04:41:19;;;;;;;4.53;1.17;;;;;;;19.13;55.78;100109.59;5033291;28;20175;-67
2022/12/24 04:43:45;;;;;;;2.60;1.27;;;;;;;19.16;55.22;100111.66;5034424;28;20187;-67
2022/12/24 04:46:17;;;;;;;3.50;1.00;;;;;;;19.11;55.45;100132.03;5070880;28;21049;-67
2022/12/24 04:48:46;;;;;;;1.80;0.80;;;;;;;19.16;55.46;100136.63;5050425;28;20221;-66
2022/12/24 04:51:11;;;;;;;2.37;1.00;;;;;;;19.14;55.15;100134.16;5053155;28;20768;-66
2022/12/24 04:53:37;;;;;;;2.23;0.90;;;;;;;19.14;55.49;100136.16;5036579;28;20459;-66
2022/12/24 04:56:03;;;;;;;3.70;1.07;;;;;;;19.14;55.07;100128.41;5052756;28;20623;-65
2022/12/24 04:58:28;;;;;;;2.20;0.87;;;;;;;19.14;55.35;100134.16;5037866;28;20338;-65
2022/12/24 05:00:54;;;;;;;2.43;1.00;;;;;;;19.12;55.61;100133.69;5032972;28;20669;-65
2022/12/24 05:03:19;;;;;;;3.27;0.77;;;;;;;19.13;55.39;100132.50;5040020;28;20217;-66
2022/12/24 05:05:45;;;;;;;2.00;0.77;;;;;;;19.13;55.17;100138.22;5069520;28;20194;-66
2022/12/24 05:08:10;;;;;;;3.20;1.30;;;;;;;19.13;55.27;100141.09;5032968;28;20198;-67
2022/12/24 05:10:36;;;;;;;4.10;1.07;;;;;;;19.11;55.31;100134.09;5032887;28;20160;-66
2022/12/24 05:13:01;;;;;;;3.63;1.30;;;;;;;19.11;55.32;100143.50;5045219;28;20190;-66
2022/12/24 05:15:27;;;;;;;2.10;0.90;;;;;;;19.13;55.30;100146.81;5052748;28;20217;-66
2022/12/24 05:17:52;;;;;;;1.83;0.83;;;;;;;19.11;55.46;100143.50;5068641;28;20183;-66
2022/12/24 05:20:17;;;;;;;3.67;1.07;;;;;;;19.14;55.45;100141.88;5032636;28;20172;-67
2022/12/24 05:28:21;;;;;;;1.90;1.00;;;;;;;19.16;55.13;100130.91;5061586;28;20431;-66
2022/12/24 05:30:46;;;;;;;2.20;1.00;;;;;;;19.12;55.20;100132.88;5069582;28;20519;-66
2022/12/24 05:33:12;;;;;;;3.07;1.00;;;;;;;19.13;55.56;100128.81;5079089;28;20183;-65
2022/12/24 05:35:37;;;;;;;2.63;0.93;;;;;;;19.13;55.10;100132.50;5050564;28;20184;-65
2022/12/24 05:38:03;;;;;;;3.37;0.90;;;;;;;19.14;55.59;100148.44;5050577;28;20160;-66
2022/12/24 05:40:28;;;;;;;2.17;0.80;;;;;;;19.14;55.19;100142.72;5035251;28;20183;-66
2022/12/24 05:42:53;;;;;;;2.73;1.00;;;;;;;19.14;55.17;100147.63;5050488;28;20156;-66
2022/12/24 05:45:19;;;;;;;2.13;0.83;;;;;;;19.15;55.24;100147.22;5039219;28;20170;-66
2022/12/24 05:47:44;;;;;;;2.20;0.87;;;;;;;19.15;55.06;100140.66;5070524;28;20572;-66
2022/12/24 05:50:10;;;;;;;2.70;1.40;;;;;;;19.13;55.08;100140.25;5051983;28;20614;-66
2022/12/24 05:52:35;;;;;;;3.20;1.23;;;;;;;19.13;55.19;100143.13;5051781;28;20184;-67
2022/12/24 05:55:01;;;;;;;5.33;1.13;;;;;;;19.13;55.15;100141.09;5050487;28;20273;-67
2022/12/24 05:57:26;;;;;;;1.97;0.80;;;;;;;19.14;55.00;100142.72;5032523;28;20222;-66
2022/12/24 05:59:52;;;;;;;1.90;0.87;;;;;;;19.13;54.94;100137.38;5034739;28;20503;-66
2022/12/24 06:02:17;;;;;;;1.87;0.80;;;;;;;19.16;55.42;100140.28;5051019;28;20229;-66
2022/12/24 06:04:42;;;;;;;2.33;1.10;;;;;;;19.14;54.98;100137.00;5071286;28;20252;-67
2022/12/24 06:07:08;;;;;;;3.70;1.00;;;;;;;19.13;55.17;100132.50;5025769;28;20199;-67
2022/12/24 06:09:33;;;;;;;2.00;0.80;;;;;;;19.14;55.19;100137.00;5019611;28;20164;-66
2022/12/24 06:11:59;;;;;;;2.83;0.93;;;;;;;19.13;55.34;100141.09;5037656;28;20187;-66
2022/12/24 06:14:24;;;;;;;2.73;1.13;;;;;;;19.13;55.18;100149.66;5036064;28;20825;-66
2022/12/24 06:16:50;;;;;;;1.90;1.00;;;;;;;19.14;55.10;100142.72;5054796;28;20175;-66
2022/12/24 06:19:15;;;;;;;1.90;0.70;;;;;;;19.13;55.35;100152.53;5054121;28;20209;-66
2022/12/24 06:21:41;;;;;;;1.63;0.80;;;;;;;19.15;55.29;100160.72;5093834;28;20170;-66
2022/12/24 06:24:06;;;;;;;2.80;1.10;;;;;;;19.15;55.04;100150.09;5062684;28;20197;-66
2022/12/24 06:26:32;;;;;;;2.90;1.07;;;;;;;19.11;55.10;100143.50;5073440;28;20692;-66
2022/12/24 06:28:57;;;;;;;3.77;1.20;;;;;;;19.12;55.15;100133.69;5055961;28;20163;-66
2022/12/24 06:31:23;;;;;;;2.13;0.70;;;;;;;19.16;55.24;100151.72;5073336;28;20172;-66
2022/12/24 06:33:48;;;;;;;2.03;0.80;;;;;;;19.16;55.10;100154.59;5069497;28;20182;-67
2022/12/24 06:36:16;;;;;;;2.33;0.83;;;;;;;19.14;55.27;100159.91;5054930;28;20163;-66
2022/12/24 06:38:42;;;;;;;5.30;1.10;;;;;;;19.15;54.88;100164.41;5071014;28;20525;-67
2022/12/24 06:41:07;;;;;;;2.97;0.80;;;;;;;19.18;55.07;100166.50;5018168;28;20410;-66
2022/12/24 06:43:36;;;;;;;2.33;0.90;;;;;;;19.17;55.14;100181.19;5036730;28;20199;-66
2022/12/24 06:46:01;;;;;;;2.50;0.80;;;;;;;19.18;55.49;100186.53;5054924;28;20290;-66
2022/12/24 06:48:27;;;;;;;1.80;1.10;;;;;;;19.17;54.95;100181.19;5031462;28;20529;-66
2022/12/24 06:50:52;;;;;;;2.20;0.90;;;;;;;19.15;54.98;100190.16;5035424;28;20188;-65
2022/12/24 06:53:18;;;;;;;3.67;1.20;;;;;;;19.14;55.28;100194.25;5034724;28;20164;-65
2022/12/24 06:55:43;;;;;;;3.53;1.00;;;;;;;19.16;54.80;100197.53;5052146;28;20378;-65
2022/12/24 06:58:09;;;;;;;2.40;1.00;;;;;;;19.17;55.33;100207.75;5036553;28;20599;-65
2022/12/24 07:00:34;;;;;;;2.83;1.10;;;;;;;19.18;55.11;100206.56;5052220;28;20168;-65
2022/12/24 07:03:00;;;;;;;2.13;1.03;;;;;;;19.17;55.10;100210.63;5038429;28;20218;-65
2022/12/24 07:05:25;;;;;;;3.60;1.00;;;;;;;19.17;55.25;100215.53;5037474;28;20524;-65
2022/12/24 07:07:50;;;;;;;2.80;1.20;;;;;;;19.18;54.99;100211.44;5048425;28;20199;-65
2022/12/24 07:10:16;;;;;;;2.17;0.90;;;;;;;19.16;55.15;100220.41;5053744;28;20182;-65
2022/12/24 07:12:42;;;;;;;2.63;0.80;;;;;;;19.18;54.93;100229.47;5038093;28;20186;-65
2022/12/24 07:15:08;;;;;;;3.27;1.27;;;;;;;19.15;55.00;100223.66;5067816;28;20220;-65
2022/12/24 07:17:33;;;;;;;2.80;1.00;;;;;;;19.16;54.90;100226.13;5037842;28;20631;-65
2022/12/24 07:19:59;;;;;;;1.80;0.80;;;;;;;19.16;55.53;100219.63;5072662;28;20412;-65
2022/12/24 07:22:24;;;;;;;7.43;1.20;;;;;;;19.17;55.16;100230.66;5074565;28;20182;-65
2022/12/24 07:24:50;;;;;;;2.60;1.40;;;;;;;19.15;55.15;100227.38;5053871;28;20175;-65
2022/12/24 07:27:15;;;;;;;2.57;1.07;;;;;;;19.17;55.28;100233.50;5034372;28;20207;-65
2022/12/24 07:29:41;;;;;;;2.20;0.80;;;;;;;19.16;55.13;100229.00;5042407;28;20179;-65
2022/12/24 07:32:06;;;;;;;2.77;0.60;;;;;;;19.15;54.97;100233.09;5076932;28;20175;-65
2022/12/24 07:34:31;;;;;;;2.10;1.07;;;;;;;19.15;55.09;100235.94;5070436;28;20179;-65
2022/12/24 07:36:57;;;;;;;2.43;0.80;;;;;;;19.17;55.02;100233.50;5035280;28;20176;-65
2022/12/24 07:39:23;;;;;;;2.20;0.80;;;;;;;19.18;55.34;100237.22;5052185;28;20168;-65
2022/12/24 07:41:49;;;;;;;3.60;0.83;;;;;;;19.17;55.03;100247.00;5034078;28;20657;-65
2022/12/24 07:44:15;;;;;;;2.60;0.80;;;;;;;19.16;55.10;100240.44;5053173;28;20188;-65
2022/12/24 07:46:40;;;;;;;2.60;0.90;;;;;;;19.19;55.31;100230.28;5034129;28;20504;-66
2022/12/24 07:49:05;;;;;;;2.23;1.00;;;;;;;19.17;54.64;100236.38;5017768;28;20221;-66
2022/12/24 07:51:31;;;;;;;5.43;1.30;;;;;;;19.18;55.11;100232.31;5067796;28;20197;-66
2022/12/24 07:53:56;;;;;;;2.30;1.00;;;;;;;19.16;55.07;100231.88;5037095;28;20179;-65
2022/12/24 07:56:22;;;;;;;2.30;1.00;;;;;;;19.18;55.02;100232.31;5029120;28;20219;-66
2022/12/24 07:58:49;;;;;;;3.50;1.00;;;;;;;19.17;55.09;100233.50;5051784;28;20168;-65
2022/12/24 08:01:14;;;;;;;2.90;1.07;;;;;;;19.18;55.31;100246.63;5036243;28;20533;-66
2022/12/24 08:03:39;;;;;;;3.93;0.90;;;;;;;19.20;54.97;100237.63;5043829;28;20449;-66
2022/12/24 08:06:05;;;;;;;1.60;0.90;;;;;;;19.20;54.89;100249.09;5071654;28;20195;-66
2022/12/24 08:08:31;;;;;;;2.10;0.87;;;;;;;19.18;55.32;100240.91;5054154;28;20294;-66
2022/12/24 08:11:02;;;;;;;2.83;1.10;;;;;;;19.19;54.78;100245.41;5053855;28;20194;-66
2022/12/24 08:13:28;;;;;;;2.80;0.93;;;;;;;19.23;54.98;100245.50;5017569;28;20183;-66
2022/12/24 08:15:54;;;;;;;2.53;1.00;;;;;;;19.21;54.91;100248.69;5020917;28;20425;-66
2022/12/24 08:18:19;;;;;;;1.83;0.80;;;;;;;19.23;54.78;100254.06;5071524;28;20159;-66
2022/12/24 08:20:45;;;;;;;2.97;0.87;;;;;;;19.21;55.05;100263.00;5071438;28;20182;-66
2022/12/24 08:23:10;;;;;;;1.97;0.97;;;;;;;19.20;55.19;100271.97;5038989;28;20176;-66
2022/12/24 08:25:35;;;;;;;2.63;0.90;;;;;;;19.20;55.28;100267.09;5016906;28;20240;-66
2022/12/24 08:28:01;;;;;;;2.30;0.97;;;;;;;19.19;54.78;100271.16;5022613;28;20643;-66
2022/12/24 08:30:26;;;;;;;1.73;0.93;;;;;;;19.20;55.06;100266.25;5055200;28;20182;-66
2022/12/24 08:32:53;;;;;;;5.97;0.90;;;;;;;19.19;55.07;100264.59;5053074;28;20183;-66
2022/12/24 08:35:19;;;;;;;2.17;0.90;;;;;;;19.23;55.48;100274.13;5071405;28;20161;-66
2022/12/24 08:37:44;;;;;;;1.60;0.90;;;;;;;19.23;54.74;100265.53;5062475;28;20438;-66
2022/12/24 08:40:10;;;;;;;2.63;0.80;;;;;;;19.20;54.87;100260.53;5051295;28;20182;-66
2022/12/24 08:42:35;;;;;;;2.60;0.80;;;;;;;19.23;54.65;100263.50;5052090;28;20171;-66
2022/12/24 08:45:01;;;;;;;2.93;1.00;;;;;;;19.21;55.06;100270.78;5052409;28;20729;-66
2022/12/24 08:47:26;;;;;;;2.03;0.90;;;;;;;19.20;55.30;100263.41;5070662;28;20657;-66
2022/12/24 08:49:51;;;;;;;2.10;0.90;;;;;;;19.19;54.98;100270.34;5059019;28;20191;-66
2022/12/24 08:52:17;;;;;;;1.83;0.87;;;;;;;19.24;54.88;100268.00;5033169;28;20163;-66
2022/12/24 08:54:42;;;;;;;2.47;0.80;;;;;;;19.22;54.86;100273.28;5053202;28;20234;-66
2022/12/24 08:57:08;;;;;;;2.57;1.00;;;;;;;19.23;54.93;100272.09;5051084;28;20152;-66
2022/12/24 08:59:33;;;;;;;2.37;0.83;;;;;;;19.24;54.80;100281.47;5051049;28;20167;-66
2022/12/24 09:01:59;;;;;;;2.63;1.20;;;;;;;19.20;54.87;100278.53;5035790;28;20183;-66
2022/12/24 09:04:24;;;;;;;1.77;0.80;;;;;;;19.21;54.85;100280.19;5049468;28;20247;-66
2022/12/24 09:06:49;;;;;;;5.03;1.00;;;;;;;19.21;54.90;100277.31;5067978;28;20685;-66
2022/12/24 09:09:15;;;;;;;2.53;1.10;;;;;;;19.22;54.96;100287.59;5034177;28;20163;-66
2022/12/24 09:11:40;;;;;;;2.83;1.20;;;;;;;19.21;55.15;100297.34;5033302;28;20175;-66
2022/12/24 09:14:06;;;;;;;2.17;0.90;;;;;;;19.19;55.29;100290.38;5035425;28;20187;-66
2022/12/24 09:16:31;;;;;;;1.97;0.90;;;;;;;19.23;55.08;100302.75;5050844;28;20163;-66
2022/12/24 09:18:57;;;;;;;1.70;0.80;;;;;;;19.24;55.05;100296.63;5054154;28;20577;-66
2022/12/24 09:21:22;;;;;;;1.97;0.90;;;;;;;19.21;55.00;100297.34;5036180;28;20634;-66
2022/12/24 09:23:48;;;;;;;1.83;0.80;;;;;;;19.24;55.05;100304.38;5035457;28;20188;-66
2022/12/24 09:26:21;;;;;;;2.47;0.80;;;;;;;19.21;54.80;100297.34;5047139;28;20202;-66
2022/12/24 09:28:47;;;;;;;2.23;1.03;;;;;;;19.21;54.63;100288.78;5055092;28;20171;-66
2022/12/24 09:31:12;;;;;;;1.90;0.87;;;;;;;19.24;54.98;100301.53;5064426;28;20436;-66
2022/12/24 09:33:38;;;;;;;3.00;1.13;;;;;;;19.20;54.86;100295.72;5025821;28;20205;-66
2022/12/24 09:36:04;;;;;;;1.90;0.90;;;;;;;19.21;54.87;100311.66;5070689;28;20180;-66
2022/12/24 09:38:30;;;;;;;2.23;0.80;;;;;;;19.22;54.98;100307.63;5032987;28;20465;-66
2022/12/24 09:40:56;;;;;;;2.40;1.00;;;;;;;19.21;54.87;100314.53;5047003;28;20455;-66
2022/12/24 09:43:27;;;;;;;4.03;1.17;;;;;;;19.01;55.09;100318.69;5045354;28;20179;-66
2022/12/24 09:46:11;;;;;;;5.60;2.50;;;;;;;18.83;54.48;100329.03;5030065;28;20840;-66
2022/12/24 09:48:39;;;;;;;8.80;3.40;;;;;;;18.79;54.17;100318.72;5063072;28;20458;-67
2022/12/24 09:51:18;;;;;;;14.33;6.10;;;;;;;18.85;53.26;100326.59;5068380;28;20421;-66
2022/12/24 09:54:01;;;;;;;20.73;6.30;;;;;;;18.92;52.94;100329.56;5033280;28;20463;-67
2022/12/24 09:56:30;;;;;;;31.77;6.50;;;;;;;18.93;52.43;100330.41;5054959;28;20468;-67
2022/12/24 09:59:00;;;;;;;30.00;7.57;;;;;;;19.01;52.62;100338.72;5069443;28;20504;-66
2022/12/24 10:01:26;;;;;;;17.17;6.30;;;;;;;19.05;52.37;100348.22;5020593;28;20456;-67
2022/12/24 10:03:51;;;;;;;14.73;6.40;;;;;;;19.07;52.51;100345.78;5046989;28;20974;-66
2022/12/24 10:06:18;;;;;;;19.60;5.57;;;;;;;19.08;53.53;100344.59;5093830;28;20213;-67
2022/12/24 10:09:15;;;;;;;20.47;7.17;;;;;;;19.14;53.22;100353.66;5055284;28;20172;-66
2022/12/24 10:11:57;;;;;;;15.40;6.10;;;;;;;19.20;53.50;100357.84;5066149;28;20436;-67
2022/12/24 10:14:28;;;;;;;18.87;5.67;;;;;;;19.23;53.21;100357.97;5055961;28;20470;-67
2022/12/24 10:17:00;;;;;;;18.50;5.10;;;;;;;19.22;53.80;100367.72;5063606;28;20846;-68
2022/12/24 10:19:35;;;;;;;19.87;6.30;;;;;;;19.22;53.70;100362.00;5079716;28;20877;-68
2022/12/24 10:22:22;;;;;;;20.80;6.03;;;;;;;19.37;53.64;100358.16;5035153;28;20487;-67
2022/12/24 10:25:13;;;;;;;12.97;5.27;;;;;;;19.35;53.58;100366.31;5020960;28;21195;-68
2022/12/24 10:27:39;;;;;;;17.07;5.13;;;;;;;19.23;53.74;100357.97;5055415;28;20486;-68
2022/12/24 10:30:19;;;;;;;18.10;6.27;;;;;;;19.22;53.60;100359.13;5076859;28;20531;-67
2022/12/24 10:32:46;;;;;;;9.73;4.40;;;;;;;19.21;53.90;100360.31;5056481;28;20174;-67
2022/12/24 10:35:19;;;;;;;27.50;6.10;;;;;;;19.25;53.60;100374.72;5039734;28;20442;-67
2022/12/24 10:37:48;;;;;;;12.80;4.43;;;;;;;19.24;53.43;100376.78;5040338;28;20438;-67
2022/12/24 10:40:48;;;;;;;17.63;5.00;;;;;;;19.23;52.70;100363.69;5018738;28;20945;-67
2022/12/24 10:43:16;;;;;;;19.90;4.73;;;;;;;19.27;52.40;100358.81;5048975;28;21037;-67
2022/12/24 10:45:46;;;;;;;18.27;5.00;;;;;;;19.28;52.83;100360.50;5035956;28;20421;-67
2022/12/24 10:48:35;;;;;;;19.37;5.10;;;;;;;19.21;53.01;100359.53;5066348;28;20798;-67
2022/12/24 10:51:06;;;;;;;19.47;4.50;;;;;;;19.25;52.99;100372.69;5075698;28;20444;-66
2022/12/24 10:53:37;;;;;;;17.00;4.50;;;;;;;19.24;52.91;100376.78;5054560;28;20452;-66
2022/12/24 10:56:08;;;;;;;18.03;5.00;;;;;;;19.28;53.12;100374.81;5039683;28;20468;-66
2022/12/24 10:58:34;;;;;;;10.43;4.60;;;;;;;19.27;52.93;100376.00;5049933;28;20503;-66
2022/12/24 11:00:59;;;;;;;14.77;5.27;;;;;;;19.29;53.16;100379.31;5047380;28;20420;-66
2022/12/24 11:03:30;;;;;;;13.97;4.03;;;;;;;19.33;53.09;100373.63;5079002;28;20424;-67
2022/12/24 11:06:22;;;;;;;15.23;4.40;;;;;;;19.31;53.24;100370.34;5033105;28;20188;-66
2022/12/24 11:08:47;;;;;;;14.80;4.23;;;;;;;19.31;53.80;100374.00;5071340;28;20442;-67
2022/12/24 11:11:14;;;;;;;13.80;4.30;;;;;;;19.33;53.59;100373.63;5038877;28;20434;-67
2022/12/24 11:13:45;;;;;;;12.63;4.30;;;;;;;19.31;53.41;100373.22;5039670;28;21078;-68
2022/12/24 11:16:34;;;;;;;13.30;4.50;;;;;;;19.30;53.40;100380.97;5035504;28;20417;-68
2022/12/24 11:19:14;;;;;;;15.90;4.20;;;;;;;19.32;53.69;100384.25;5030352;28;20437;-67
2022/12/24 11:21:39;;;;;;;19.23;4.97;;;;;;;19.31;53.69;100379.75;5032848;28;20425;-67
2022/12/24 11:24:07;;;;;;;13.20;4.43;;;;;;;19.27;53.82;100386.63;5035762;28;20863;-67
2022/12/24 11:26:33;;;;;;;14.50;4.07;;;;;;;19.29;53.71;100384.19;5066855;28;20269;-68
2022/12/24 11:29:23;;;;;;;18.23;5.43;;;;;;;19.28;54.04;100388.28;5060857;28;20425;-67
2022/12/24 11:31:49;;;;;;;12.17;4.67;;;;;;;19.28;53.74;100386.25;5055449;28;20186;-65
2022/12/24 11:34:17;;;;;;;12.97;4.40;;;;;;;19.25;53.96;100377.59;5055380;28;20982;-65
2022/12/24 11:36:43;;;;;;;15.37;4.33;;;;;;;19.25;54.33;100380.44;5070553;28;20160;-65
2022/12/24 11:39:16;;;;;;;18.23;3.87;;;;;;;19.26;54.11;100373.53;5071620;28;20529;-65